createdAt,value
2022-11-16T00:01:34.065Z,100.00
2022-11-16T00:04:02.594Z,100.00
2022-11-16T00:06:30.153Z,100.00
2022-11-16T00:09:20.034Z,100.00
2022-11-16T00:11:49.958Z,100.00
2022-11-16T00:14:17.863Z,100.00
2022-11-16T00:16:44.927Z,100.00
2022-11-16T00:19:12.823Z,99.42
2022-11-16T00:21:39.951Z,98.01
2022-11-16T00:24:07.970Z,99.34
2022-11-16T00:26:35.296Z,97.89
2022-11-16T00:29:02.352Z,97.41
2022-11-16T00:31:29.348Z,100.00
2022-11-16T00:33:56.403Z,98.97
2022-11-16T00:36:23.443Z,98.44
2022-11-16T00:38:54.070Z,100.00
2022-11-16T00:41:21.286Z,100.00
2022-11-16T00:43:48.281Z,100.00
2022-11-16T00:46:15.472Z,100.00
2022-11-16T00:48:42.762Z,100.00
2022-11-16T00:51:09.812Z,100.00
2022-11-16T00:53:36.995Z,100.00
2022-11-16T00:56:05.029Z,100.00
2022-11-16T00:58:32.534Z,100.00
2022-11-16T01:01:08.616Z,100.00
2022-11-16T01:03:36.636Z,100.00
2022-11-16T01:06:14.758Z,100.00
2022-11-16T01:08:43.167Z,100.00
2022-11-16T01:11:31.517Z,100.00
2022-11-16T01:13:58.594Z,100.00
2022-11-16T01:16:25.479Z,100.00
2022-11-16T01:18:54.070Z,100.00
2022-11-16T01:21:22.402Z,100.00
2022-11-16T01:23:49.734Z,100.00
2022-11-16T01:26:16.837Z,100.00
2022-11-16T01:28:43.958Z,100.00
2022-11-16T01:31:11.803Z,100.00
2022-11-16T01:33:39.208Z,100.00
2022-11-16T01:36:15.005Z,100.00
2022-11-16T01:38:43.809Z,100.00
2022-11-16T01:41:15.692Z,100.00
2022-11-16T01:43:53.911Z,100.00
2022-11-16T01:46:21.398Z,100.00
2022-11-16T01:48:50.966Z,100.00
2022-11-16T01:51:18.140Z,100.00
2022-11-16T01:53:45.388Z,100.00
2022-11-16T01:56:12.473Z,100.00
2022-11-16T01:58:39.715Z,100.00
2022-11-16T02:01:06.753Z,100.00
2022-11-16T02:03:36.865Z,100.00
2022-11-16T02:06:27.659Z,100.00
2022-11-16T02:09:43.517Z,100.00
2022-11-16T02:12:28.443Z,100.00
2022-11-16T02:15:04.804Z,100.00
2022-11-16T02:17:31.615Z,100.00
2022-11-16T02:20:35.990Z,100.00
2022-11-16T02:23:44.143Z,100.00
2022-11-16T02:26:45.381Z,100.00
2022-11-16T02:29:15.228Z,100.00
2022-11-16T02:31:50.872Z,100.00
2022-11-16T02:34:21.555Z,100.00
2022-11-16T02:36:52.890Z,100.00
2022-11-16T02:39:24.954Z,100.00
2022-11-16T02:41:54.750Z,100.00
2022-11-16T02:44:33.279Z,100.00
2022-11-16T02:47:05.437Z,100.00
2022-11-16T02:49:36.823Z,100.00
2022-11-16T02:52:05.137Z,100.00
2022-11-16T02:54:32.077Z,100.00
2022-11-16T02:57:05.043Z,100.00
2022-11-16T02:59:38.684Z,100.00
2022-11-16T03:02:34.024Z,100.00
2022-11-16T03:05:15.747Z,100.00
2022-11-16T03:07:48.771Z,100.00
2022-11-16T03:10:39.039Z,100.00
2022-11-16T03:13:08.704Z,100.00
2022-11-16T03:15:39.710Z,100.00
2022-11-16T03:18:08.872Z,100.00
2022-11-16T03:20:38.468Z,100.00
2022-11-16T03:23:09.918Z,100.00
2022-11-16T03:25:51.465Z,100.00
2022-11-16T03:29:03.266Z,100.00
2022-11-16T03:31:37.940Z,100.00
2022-11-16T03:34:12.704Z,100.00
2022-11-16T03:36:42.836Z,100.00
2022-11-16T03:39:16.068Z,100.00
2022-11-16T03:41:45.999Z,100.00
2022-11-16T03:44:14.758Z,100.00
2022-11-16T03:46:46.937Z,100.00
2022-11-16T03:49:13.995Z,100.00
2022-11-16T03:51:41.336Z,100.00
2022-11-16T03:54:08.234Z,100.00
2022-11-16T03:56:35.197Z,100.00
2022-11-16T03:59:02.073Z,100.00
2022-11-16T04:01:29.189Z,100.00
2022-11-16T04:03:56.193Z,100.00
2022-11-16T04:06:42.209Z,100.00
2022-11-16T04:09:29.270Z,100.00
2022-11-16T04:12:15.086Z,100.00
2022-11-16T04:15:01.540Z,100.00
2022-11-16T04:17:47.010Z,100.00
2022-11-16T04:20:33.943Z,100.00
2022-11-16T04:23:25.056Z,100.00
2022-11-16T04:25:52.927Z,100.00
2022-11-16T04:28:24.318Z,100.00
2022-11-16T04:31:12.766Z,100.00
2022-11-16T04:33:58.549Z,100.00
2022-11-16T04:36:43.762Z,100.00
2022-11-16T04:39:10.751Z,100.00
2022-11-16T04:41:56.569Z,100.00
2022-11-16T04:44:28.833Z,100.00
2022-11-16T04:47:09.156Z,100.00
2022-11-16T04:49:36.146Z,100.00
2022-11-16T04:52:03.282Z,100.00
2022-11-16T04:54:30.369Z,100.00
2022-11-16T04:56:57.313Z,100.00
2022-11-16T04:59:24.396Z,100.00
2022-11-16T05:02:09.308Z,100.00
2022-11-16T05:04:37.743Z,100.00
2022-11-16T05:07:11.558Z,100.00
2022-11-16T06:18:57.057Z,100.00
2022-11-16T06:21:27.507Z,100.00
2022-11-16T06:24:16.204Z,100.00
2022-11-16T06:27:50.735Z,100.00
2022-11-16T06:49:48.354Z,100.00
2022-11-16T06:52:17.388Z,100.00
2022-11-16T06:54:44.433Z,100.00
2022-11-16T06:57:11.414Z,100.00
2022-11-16T06:59:38.535Z,100.00
2022-11-16T07:02:05.853Z,100.00
2022-11-16T07:04:35.743Z,100.00
2022-11-16T07:07:06.836Z,100.00
2022-11-16T07:09:44.817Z,100.00
2022-11-16T07:54:27.733Z,100.00
2022-11-16T07:57:38.366Z,100.00
2022-11-16T08:00:26.890Z,100.00
2022-11-16T08:02:57.482Z,99.73
2022-11-16T08:14:05.620Z,98.03
2022-11-16T08:16:44.895Z,97.32
2022-11-16T08:22:52.763Z,96.43
2022-11-16T12:06:49.307Z,78.86
2022-11-16T12:44:59.062Z,64.98
2022-11-16T12:59:09.745Z,67.29
2022-11-16T13:02:42.307Z,66.31
2022-11-16T14:38:56.999Z,79.62
2022-11-16T14:41:25.793Z,80.88
2022-11-16T14:43:56.889Z,81.17
2022-11-16T14:46:28.400Z,81.61
2022-11-16T14:49:08.031Z,80.67
2022-11-16T14:51:51.093Z,81.19
2022-11-16T14:54:35.590Z,81.62
2022-11-16T14:57:12.218Z,83.04
2022-11-16T14:59:42.725Z,84.87
2022-11-16T15:02:28.158Z,83.30
2022-11-16T15:04:55.290Z,84.74
2022-11-16T15:07:29.043Z,84.39
2022-11-16T15:09:59.556Z,85.14
2022-11-16T15:12:51.651Z,84.87
2022-11-16T15:15:28.469Z,84.88
2022-11-16T15:18:04.350Z,85.12
2022-11-16T15:20:34.240Z,84.38
2022-11-16T15:23:02.819Z,85.54
2022-11-16T15:26:06.494Z,85.09
2022-11-16T15:28:34.256Z,83.41
2022-11-16T15:31:04.713Z,83.23
2022-11-16T15:33:42.738Z,84.51
2022-11-16T15:36:33.729Z,83.13
2022-11-16T15:39:03.656Z,82.76
2022-11-16T15:41:30.581Z,83.99
2022-11-16T15:44:16.832Z,85.32
2022-11-16T15:46:54.659Z,84.43
2022-11-16T15:49:42.294Z,84.62
2022-11-16T15:52:09.184Z,85.70
2022-11-16T15:54:57.063Z,84.22
2022-11-16T15:57:24.931Z,84.92
2022-11-16T15:59:57.360Z,85.00
2022-11-16T16:02:27.756Z,85.18
2022-11-16T16:04:55.042Z,85.03
2022-11-16T16:07:42.500Z,84.68
2022-11-16T16:10:18.706Z,84.60
2022-11-16T16:12:57.866Z,85.11
2022-11-16T16:15:36.900Z,84.48
2022-11-16T16:18:13.372Z,84.81
2022-11-16T16:20:49.058Z,84.71
2022-11-16T16:23:16.940Z,84.99
2022-11-16T16:25:50.123Z,84.96
2022-11-16T16:28:35.216Z,84.30
2022-11-16T16:31:02.367Z,84.85
2022-11-16T16:33:30.457Z,84.41
2022-11-16T16:35:57.414Z,85.11
2022-11-16T16:38:24.300Z,85.13
2022-11-16T16:40:51.142Z,84.80
2022-11-16T16:43:17.946Z,84.52
2022-11-16T16:45:45.714Z,84.69
2022-11-16T16:48:13.059Z,84.59
2022-11-16T16:50:40.453Z,83.85
2022-11-16T16:53:07.660Z,84.27
2022-11-16T16:55:37.439Z,84.26
2022-11-16T16:58:05.422Z,84.42
2022-11-16T17:00:32.332Z,84.29
2022-11-16T17:02:59.060Z,84.44
2022-11-16T17:05:29.139Z,83.90
2022-11-16T17:07:56.465Z,83.92
2022-11-16T17:10:24.070Z,83.62
2022-11-16T17:12:54.354Z,84.38
2022-11-16T17:15:21.381Z,83.78
2022-11-16T17:17:48.332Z,83.89
2022-11-16T17:20:16.659Z,85.33
2022-11-16T17:22:43.839Z,84.67
2022-11-16T17:25:11.112Z,84.51
2022-11-16T17:27:38.023Z,84.10
2022-11-16T17:30:05.185Z,85.42
2022-11-16T17:32:32.035Z,85.19
2022-11-16T17:34:58.954Z,85.54
2022-11-16T17:37:25.773Z,85.55
2022-11-16T17:39:52.612Z,85.28
2022-11-16T17:42:19.459Z,84.31
2022-11-16T17:44:46.347Z,84.14
2022-11-16T17:47:13.221Z,85.19
2022-11-16T17:49:39.946Z,84.39
2022-11-16T17:52:07.580Z,85.17
2022-11-16T17:54:34.425Z,84.27
2022-11-16T17:57:01.339Z,84.94
2022-11-16T17:59:29.810Z,85.19
2022-11-16T18:01:58.287Z,84.76
2022-11-16T18:04:25.580Z,84.74
2022-11-16T18:07:11.028Z,84.01
2022-11-16T18:17:07.584Z,85.80
2022-11-16T18:36:57.590Z,90.09
2022-11-16T18:39:52.120Z,88.48
2022-11-16T18:45:35.735Z,87.44
2022-11-16T18:48:29.513Z,88.73
2022-11-16T18:52:25.786Z,87.48
2022-11-16T18:55:04.851Z,89.48
2022-11-16T19:04:10.755Z,88.35
2022-11-16T19:10:06.975Z,89.82
2022-11-16T19:13:06.177Z,90.37
2022-11-16T19:16:07.460Z,89.92
2022-11-16T19:18:42.433Z,90.24
2022-11-16T19:21:58.661Z,89.54
2022-11-16T19:27:49.431Z,89.80
2022-11-16T19:37:10.211Z,89.29
2022-11-16T19:43:25.737Z,89.45
2022-11-16T19:47:02.064Z,90.47
2022-11-16T19:57:09.171Z,96.65
2022-11-16T20:00:36.348Z,94.32
2022-11-16T20:03:42.793Z,94.28
2022-11-16T20:18:56.112Z,91.16
2022-11-16T20:22:19.751Z,91.59
2022-11-16T20:25:10.141Z,90.26
2022-11-16T20:28:16.491Z,89.87
2022-11-16T20:31:22.317Z,90.73
2022-11-16T20:34:12.074Z,87.66
2022-11-16T20:43:49.584Z,91.46
2022-11-16T20:46:51.584Z,92.44
2022-11-16T20:49:35.663Z,91.94
2022-11-16T20:56:09.153Z,92.21
2022-11-16T21:01:53.961Z,88.74
2022-11-16T21:18:39.698Z,86.95
2022-11-16T21:24:53.112Z,88.63
2022-11-16T21:27:55.455Z,87.51
2022-11-16T21:31:25.061Z,88.51
2022-11-16T21:34:47.943Z,86.77
2022-11-16T21:37:40.852Z,89.35
2022-11-16T21:57:13.378Z,87.83
2022-11-16T22:31:50.954Z,92.19
2022-11-16T22:44:20.103Z,86.94
2022-11-16T22:47:38.463Z,87.97
2022-11-16T22:50:41.418Z,87.54
2022-11-16T22:56:29.689Z,89.08
2022-11-16T22:59:28.387Z,87.32
2022-11-16T23:08:48.487Z,87.21
2022-11-16T23:12:06.651Z,87.64
2022-11-16T23:15:10.290Z,91.78
2022-11-16T23:17:45.027Z,91.96
2022-11-16T23:20:37.115Z,89.90
2022-11-16T23:23:39.665Z,93.75
2022-11-16T23:26:51.667Z,93.27
2022-11-16T23:29:33.743Z,89.77
2022-11-16T23:32:11.772Z,89.13
2022-11-16T23:34:51.023Z,88.78
2022-11-16T23:37:56.154Z,91.11
2022-11-16T23:41:04.594Z,89.82
2022-11-16T23:47:03.515Z,88.19
2022-11-16T23:53:02.676Z,87.45
2022-11-16T23:59:34.784Z,91.76
